createdAt,value
2019-03-05T00:00:32.586Z,98591.27
2019-03-05T00:05:36.136Z,98597.63
2019-03-05T00:10:39.675Z,98599.23
2019-03-05T00:15:44.129Z,98613.00
2019-03-05T00:20:47.649Z,98620.06
2019-03-05T00:25:51.206Z,98628.61
2019-03-05T00:31:00.847Z,98622.80
2019-03-05T00:36:13.727Z,98629.31
2019-03-05T00:41:26.272Z,98630.02
2019-03-05T00:46:35.788Z,98637.04
2019-03-05T00:51:54.622Z,98645.63
2019-03-05T00:57:01.256Z,98652.71
2019-03-05T01:02:16.910Z,98674.91
2019-03-05T01:07:20.425Z,98676.43
2019-03-05T01:12:24.185Z,98678.36
2019-03-05T01:17:27.743Z,98692.74
2019-03-05T01:22:31.259Z,98695.39
2019-03-05T01:27:34.824Z,98709.09
2019-03-05T01:32:42.735Z,98719.59
2019-03-05T01:37:46.264Z,98721.97
2019-03-05T01:42:49.828Z,98726.22
2019-03-05T01:47:53.385Z,98733.23
2019-03-05T01:52:56.948Z,98729.34
2019-03-05T01:58:00.495Z,98737.56
2019-03-05T02:03:05.110Z,98740.52
2019-03-05T02:08:08.638Z,98738.53
2019-03-05T02:13:12.204Z,98734.60
2019-03-05T02:18:18.858Z,98750.33
2019-03-05T02:23:31.283Z,98737.98
2019-03-05T02:28:43.611Z,98739.92
2019-03-05T02:33:59.070Z,98746.33
2019-03-05T02:39:08.520Z,98745.55
2019-03-05T02:44:33.713Z,98752.80
2019-03-05T02:50:13.733Z,98747.20
2019-03-05T02:55:32.508Z,98753.18
2019-03-05T03:00:37.642Z,98752.64
2019-03-05T03:05:45.854Z,98751.86
2019-03-05T03:10:49.423Z,98758.63
2019-03-05T03:15:52.950Z,98767.38
2019-03-05T03:20:56.517Z,98771.06
2019-03-05T03:26:00.104Z,98770.45
2019-03-05T03:31:03.641Z,98772.53
2019-03-05T03:36:07.189Z,98780.38
2019-03-05T03:41:10.711Z,98772.44
2019-03-05T03:46:14.263Z,98786.36
2019-03-05T03:51:17.843Z,98789.63
2019-03-05T03:56:21.366Z,98786.78
2019-03-05T04:01:24.931Z,98784.61
2019-03-05T04:06:28.487Z,98792.58
2019-03-05T04:11:32.026Z,98801.06
2019-03-05T04:16:35.560Z,98795.72
2019-03-05T04:21:39.154Z,98792.33
2019-03-05T04:26:42.697Z,98789.09
2019-03-05T04:31:46.252Z,98780.09
2019-03-05T04:36:49.811Z,98777.08
2019-03-05T04:41:53.370Z,98771.77
2019-03-05T04:46:56.928Z,98751.30
2019-03-05T04:52:08.068Z,98768.75
2019-03-05T04:57:11.590Z,98771.20
2019-03-05T05:02:15.727Z,98765.17
2019-03-05T05:07:19.288Z,98773.17
2019-03-05T05:12:22.815Z,98778.34
2019-03-05T05:17:26.347Z,98781.52
2019-03-05T05:22:29.902Z,98772.28
2019-03-05T05:27:33.481Z,98772.59
2019-03-05T05:32:37.007Z,98775.85
2019-03-05T05:37:40.540Z,98774.13
2019-03-05T05:42:44.074Z,98775.63
2019-03-05T05:47:47.648Z,98795.19
2019-03-05T05:52:51.220Z,98790.59
2019-03-05T05:57:54.772Z,98792.46
2019-03-05T06:02:58.317Z,98785.76
2019-03-05T06:08:01.905Z,98783.68
2019-03-05T06:13:05.448Z,98802.00
2019-03-05T06:18:09.057Z,98797.48
2019-03-05T06:23:12.597Z,98805.88
2019-03-05T06:28:16.182Z,98808.02
2019-03-05T06:33:19.749Z,98812.13
2019-03-05T06:38:23.288Z,98810.84
2019-03-05T06:43:27.155Z,98825.30
2019-03-05T06:48:30.802Z,98805.86
2019-03-05T06:53:34.401Z,98825.49
2019-03-05T06:58:37.932Z,98837.97
2019-03-05T07:03:41.476Z,98840.94
2019-03-05T07:08:48.225Z,98836.10
2019-03-05T07:13:54.385Z,98844.28
2019-03-05T07:18:59.655Z,98827.27
2019-03-05T07:24:24.264Z,98845.20
2019-03-05T07:29:27.888Z,98853.39
2019-03-05T07:34:33.024Z,98840.80
2019-03-05T07:39:36.588Z,98857.41
2019-03-05T07:44:40.124Z,98845.97
2019-03-05T07:49:44.435Z,98852.06
2019-03-05T07:54:48.134Z,98858.84
2019-03-05T07:59:51.676Z,98874.08
2019-03-05T08:04:55.242Z,98872.70
2019-03-05T08:10:02.848Z,98886.33
2019-03-05T08:15:15.245Z,98889.91
2019-03-05T08:20:18.804Z,98891.32
2019-03-05T08:25:22.399Z,98902.45
2019-03-05T08:30:25.907Z,98906.38
2019-03-05T08:35:29.488Z,98917.34
2019-03-05T08:40:33.341Z,98926.39
2019-03-05T08:45:36.880Z,98929.95
2019-03-05T08:50:40.416Z,98936.75
2019-03-05T08:55:43.960Z,98930.78
2019-03-05T09:00:48.263Z,98941.96
2019-03-05T09:05:51.888Z,98944.46
2019-03-05T09:10:55.430Z,98943.45
2019-03-05T09:15:58.966Z,98945.50
2019-03-05T09:21:02.506Z,98949.94
2019-03-05T09:26:06.078Z,98964.41
2019-03-05T09:31:09.630Z,98958.28
2019-03-05T09:36:13.185Z,98955.33
2019-03-05T09:41:16.731Z,98976.59
2019-03-05T09:46:20.288Z,98971.31
2019-03-05T09:51:23.853Z,98971.55
2019-03-05T09:56:28.965Z,98966.77
2019-03-05T10:01:32.548Z,98973.59
2019-03-05T10:06:36.089Z,98978.34
2019-03-05T10:11:39.670Z,98978.31
2019-03-05T10:16:43.190Z,98979.52
2019-03-05T10:21:46.820Z,98993.93
2019-03-05T10:26:50.395Z,98994.25
2019-03-05T10:31:53.940Z,99002.25
2019-03-05T10:36:57.504Z,99047.92
2019-03-05T10:42:01.073Z,99016.52
2019-03-05T10:47:04.975Z,99007.89
2019-03-05T10:52:08.544Z,99013.20
2019-03-05T10:57:12.214Z,99017.44
2019-03-05T11:02:15.956Z,99033.41
2019-03-05T11:07:19.492Z,99033.23
2019-03-05T11:12:23.021Z,99053.73
2019-03-05T11:17:26.579Z,99037.15
2019-03-05T11:22:30.155Z,99037.02
2019-03-05T11:27:33.721Z,99034.81
2019-03-05T11:32:37.343Z,99025.19
2019-03-05T11:37:40.913Z,99039.06
2019-03-05T11:42:44.483Z,99017.16
2019-03-05T11:47:48.704Z,99031.87
2019-03-05T11:52:52.219Z,99041.33
2019-03-05T11:57:55.787Z,99048.79
2019-03-05T12:02:59.313Z,99055.09
2019-03-05T12:08:02.850Z,99064.99
2019-03-05T12:13:06.440Z,99050.73
2019-03-05T12:18:10.278Z,99069.66
2019-03-05T12:23:13.819Z,99065.00
2019-03-05T12:28:17.364Z,99072.97
2019-03-05T12:33:20.910Z,99061.09
2019-03-05T12:38:24.465Z,99053.59
2019-03-05T12:43:28.025Z,99044.69
2019-03-05T12:48:39.631Z,99040.13
2019-03-05T12:53:36.896Z,99048.61
2019-03-05T12:58:40.447Z,99028.79
2019-03-05T13:03:44.008Z,99033.99
2019-03-05T13:08:47.626Z,99062.06
2019-03-05T13:14:01.850Z,99081.91
2019-03-05T13:18:58.379Z,99082.08
2019-03-05T13:24:01.718Z,99079.23
2019-03-05T13:29:05.289Z,99071.80
2019-03-05T13:34:08.840Z,99076.15
2019-03-05T13:39:12.404Z,99064.22
2019-03-05T13:44:32.115Z,99055.71
2019-03-05T13:49:59.831Z,99063.45
2019-03-05T13:55:04.722Z,99043.38
2019-03-05T14:00:12.078Z,99054.52
2019-03-05T14:05:21.848Z,99053.79
2019-03-05T14:10:26.312Z,99061.09
2019-03-05T14:15:30.000Z,99062.75
2019-03-05T14:20:35.187Z,99056.21
2019-03-05T14:25:38.874Z,99067.92
2019-03-05T14:30:42.550Z,99071.87
2019-03-05T14:35:47.570Z,99078.03
2019-03-05T14:40:51.474Z,99089.06
2019-03-05T14:45:55.171Z,99091.23
2019-03-05T14:50:58.759Z,99119.72
2019-03-05T14:56:02.411Z,99126.63
2019-03-05T15:01:06.519Z,99145.34
2019-03-05T15:06:10.288Z,99156.52
2019-03-05T15:11:15.490Z,99157.72
2019-03-05T15:16:19.216Z,99181.00
2019-03-05T15:21:22.954Z,99175.39
2019-03-05T15:26:26.595Z,99178.22
2019-03-05T15:31:30.341Z,99178.14
2019-03-05T15:36:34.576Z,99182.22
2019-03-05T15:41:38.276Z,99178.33
2019-03-05T15:46:41.979Z,99188.70
2019-03-05T15:51:45.797Z,99191.08
2019-03-05T15:56:49.408Z,99198.55
2019-03-05T16:01:53.022Z,99204.96
2019-03-05T16:06:56.661Z,99204.45
2019-03-05T16:12:00.213Z,99203.16
2019-03-05T16:17:04.794Z,99194.82
2019-03-05T16:22:08.365Z,99206.17
2019-03-05T16:27:11.936Z,99204.09
2019-03-05T16:32:23.008Z,99208.64
2019-03-05T16:37:42.712Z,99212.80
2019-03-05T16:42:52.092Z,99215.24
2019-03-05T16:47:57.342Z,99267.83
2019-03-05T16:53:02.509Z,99275.33
2019-03-05T16:58:23.883Z,99279.70
2019-03-05T17:03:41.172Z,99272.30
2019-03-05T17:08:52.114Z,99282.73
2019-03-05T17:13:55.696Z,99293.41
2019-03-05T17:18:59.584Z,99309.73
2019-03-05T17:24:03.385Z,99315.23
2019-03-05T17:29:07.214Z,99337.27
2019-03-05T17:34:11.240Z,99323.16
2019-03-05T17:39:16.608Z,99347.44
2019-03-05T17:44:20.229Z,99362.13
2019-03-05T17:49:23.837Z,99371.08
2019-03-05T17:54:27.727Z,99375.55
2019-03-05T17:59:31.273Z,99384.95
2019-03-05T18:04:34.835Z,99387.17
2019-03-05T18:09:38.385Z,99393.77
2019-03-05T18:14:41.950Z,99379.98
2019-03-05T18:19:45.703Z,99388.88
2019-03-05T18:24:49.273Z,99387.80
2019-03-05T18:29:53.082Z,99391.72
2019-03-05T18:34:56.657Z,99387.84
2019-03-05T18:40:00.405Z,99381.04
2019-03-05T18:45:05.979Z,99391.73
2019-03-05T18:50:12.923Z,99395.98
2019-03-05T18:55:23.804Z,99408.98
2019-03-05T19:00:33.974Z,99412.80
2019-03-05T19:05:37.547Z,99421.10
2019-03-05T19:10:41.153Z,99432.84
2019-03-05T19:15:44.708Z,99446.38
2019-03-05T19:20:48.283Z,99444.37
2019-03-05T19:25:51.870Z,99449.31
2019-03-05T19:30:55.451Z,99452.95
2019-03-05T19:35:59.046Z,99462.84
2019-03-05T19:41:02.584Z,99467.80
2019-03-05T19:46:06.114Z,99474.59
2019-03-05T19:51:09.696Z,99484.02
2019-03-05T19:56:13.280Z,99498.25
2019-03-05T20:01:18.464Z,99492.20
2019-03-05T20:06:22.029Z,99495.17
2019-03-05T20:11:25.604Z,99490.50
2019-03-05T20:16:29.223Z,99511.22
2019-03-05T20:21:32.808Z,99517.79
2019-03-05T20:26:36.356Z,99530.36
2019-03-05T20:31:39.890Z,99541.42
2019-03-05T20:36:43.460Z,99549.61
2019-03-05T20:41:47.282Z,99557.34
2019-03-05T20:46:50.838Z,99561.03
2019-03-05T20:51:54.539Z,99575.33
2019-03-05T20:56:58.425Z,99578.76
2019-03-05T21:02:02.065Z,99581.45
2019-03-05T21:07:06.376Z,99590.28
2019-03-05T21:12:10.268Z,99598.06
2019-03-05T21:17:14.302Z,99596.25
2019-03-05T21:22:19.088Z,99613.14
2019-03-05T21:27:23.007Z,99613.14
2019-03-05T21:32:26.942Z,99620.66
2019-03-05T21:37:31.847Z,99633.88
2019-03-05T21:42:35.955Z,99650.09
2019-03-05T21:47:39.593Z,99654.62
2019-03-05T21:52:43.395Z,99676.52
2019-03-05T21:57:47.462Z,99682.79
2019-03-05T22:02:51.529Z,99697.69
2019-03-05T22:07:55.517Z,99694.81
2019-03-05T22:12:59.087Z,99697.22
2019-03-05T22:18:03.020Z,99716.06
2019-03-05T22:23:06.819Z,99719.41
2019-03-05T22:28:10.379Z,99728.05
2019-03-05T22:33:13.910Z,99730.39
2019-03-05T22:38:17.466Z,99724.09
2019-03-05T22:43:21.018Z,99736.33
2019-03-05T22:48:24.579Z,99732.87
2019-03-05T22:53:28.120Z,99755.01
2019-03-05T22:58:31.678Z,99764.73
2019-03-05T23:03:35.277Z,99762.62
2019-03-05T23:08:38.794Z,99768.32
2019-03-05T23:13:42.478Z,99776.52
2019-03-05T23:18:46.469Z,99776.29
2019-03-05T23:23:50.010Z,99782.19
2019-03-05T23:28:53.583Z,99787.77
2019-03-05T23:33:57.248Z,99792.79
2019-03-05T23:39:00.844Z,99791.52
2019-03-05T23:44:04.853Z,99801.58
2019-03-05T23:49:08.386Z,99800.87
2019-03-05T23:54:12.045Z,99815.23
2019-03-05T23:59:15.638Z,99823.40
